Hagaman, Illinois
Current Conditions -  °F | °C
As of 6:35 AM on Friday 31 Oct 2014 (Local Time) from K3LF Reporting Station
Overcast Overcast  
Wind Chill: 38°   Ceiling: 6000
Heat Index: 45°   Visibility: 10mi
Dew Point: 40°   Wind: 17mph
Humidity: 81%   Direction: 330°NNW
Pressure: 30.13"   Gusts: NA
Location:  39.2816°N, 90.0918°W
Report Text: K3LF 311135Z AUTO 33015KT 10SM OVC060 07/04 A3013 RMK AO2 T00720042
Loading
Personal Weather Stations






























Interactive Weather Map
Tropical Storm Tracking
New forecast layout! Learn more

10-Day Weather Forecast

Advertisements
Track Severe Weather on mobile